sensor_id;sensor_type;location;lat;lon;timestamp;pressure;altitude;pressure_sealevel;temperature;humidity
36600;BME280;35385;55.668;37.508;2023-03-16T00:00:08;98899.78;;;3.84;100.00
36600;BME280;35385;55.668;37.508;2023-03-16T00:01:12;98891.50;;;3.76;100.00
36600;BME280;35385;55.668;37.508;2023-03-16T00:02:13;98895.72;;;3.79;100.00
36600;BME280;35385;55.668;37.508;2023-03-16T00:03:13;98897.88;;;3.86;100.00
36600;BME280;35385;55.668;37.508;2023-03-16T00:04:20;98893.00;;;3.93;100.00
36600;BME280;35385;55.668;37.508;2023-03-16T00:05:20;98887.53;;;3.96;100.00
36600;BME280;35385;55.668;37.508;2023-03-16T00:06:21;98890.06;;;3.98;100.00
36600;BME280;35385;55.668;37.508;2023-03-16T00:07:21;98889.88;;;4.01;100.00
36600;BME280;35385;55.668;37.508;2023-03-16T00:08:21;98886.88;;;3.92;100.00
36600;BME280;35385;55.668;37.508;2023-03-16T00:09:23;98870.81;;;3.83;100.00
36600;BME280;35385;55.668;37.508;2023-03-16T00:10:29;98874.19;;;3.72;100.00
36600;BME280;35385;55.668;37.508;2023-03-16T00:11:30;98879.22;;;3.75;100.00
36600;BME280;35385;55.668;37.508;2023-03-16T00:12:30;98879.47;;;3.72;100.00
36600;BME280;35385;55.668;37.508;2023-03-16T00:13:33;98880.81;;;3.65;100.00
36600;BME280;35385;55.668;37.508;2023-03-16T00:14:34;98880.72;;;3.67;100.00
36600;BME280;35385;55.668;37.508;2023-03-16T00:15:34;98862.75;;;3.72;100.00
36600;BME280;35385;55.668;37.508;2023-03-16T00:16:35;98871.19;;;3.64;100.00
36600;BME280;35385;55.668;37.508;2023-03-16T00:17:35;98871.16;;;3.51;100.00
36600;BME280;35385;55.668;37.508;2023-03-16T00:18:36;98866.72;;;3.52;100.00
36600;BME280;35385;55.668;37.508;2023-03-16T00:19:37;98868.81;;;3.47;100.00
36600;BME280;35385;55.668;37.508;2023-03-16T00:20:38;98870.75;;;3.45;100.00
36600;BME280;35385;55.668;37.508;2023-03-16T00:21:38;98871.13;;;3.39;100.00
36600;BME280;35385;55.668;37.508;2023-03-16T00:22:39;98868.59;;;3.37;100.00
36600;BME280;35385;55.668;37.508;2023-03-16T00:23:40;98857.28;;;3.35;100.00
36600;BME280;35385;55.668;37.508;2023-03-16T00:24:41;98862.34;;;3.38;100.00
36600;BME280;35385;55.668;37.508;2023-03-16T00:25:42;98869.44;;;3.38;100.00
36600;BME280;35385;55.668;37.508;2023-03-16T00:26:43;98867.53;;;3.40;100.00
36600;BME280;35385;55.668;37.508;2023-03-16T00:27:44;98860.66;;;3.37;100.00
36600;BME280;35385;55.668;37.508;2023-03-16T00:28:44;98864.34;;;3.35;100.00
36600;BME280;35385;55.668;37.508;2023-03-16T00:29:45;98866.38;;;3.31;100.00
36600;BME280;35385;55.668;37.508;2023-03-16T00:30:46;98868.69;;;3.36;100.00
36600;BME280;35385;55.668;37.508;2023-03-16T00:31:50;98875.66;;;3.37;100.00
36600;BME280;35385;55.668;37.508;2023-03-16T00:32:51;98878.72;;;3.31;100.00
36600;BME280;35385;55.668;37.508;2023-03-16T00:33:52;98884.94;;;3.30;100.00
36600;BME280;35385;55.668;37.508;2023-03-16T00:34:53;98889.84;;;3.22;100.00
36600;BME280;35385;55.668;37.508;2023-03-16T00:35:53;98881.84;;;3.23;100.00
36600;BME280;35385;55.668;37.508;2023-03-16T00:37:01;98875.16;;;3.17;100.00
36600;BME280;35385;55.668;37.508;2023-03-16T00:38:01;98884.75;;;3.18;100.00
36600;BME280;35385;55.668;37.508;2023-03-16T00:39:05;98881.00;;;3.23;100.00
36600;BME280;35385;55.668;37.508;2023-03-16T00:40:06;98880.78;;;3.26;100.00
36600;BME280;35385;55.668;37.508;2023-03-16T00:41:07;98879.84;;;3.27;100.00
36600;BME280;35385;55.668;37.508;2023-03-16T00:42:08;98881.84;;;3.23;100.00
36600;BME280;35385;55.668;37.508;2023-03-16T00:43:09;98877.78;;;3.17;100.00
36600;BME280;35385;55.668;37.508;2023-03-16T00:44:09;98876.84;;;3.18;100.00
36600;BME280;35385;55.668;37.508;2023-03-16T00:45:11;98874.97;;;3.20;100.00
36600;BME280;35385;55.668;37.508;2023-03-16T00:46:12;98877.59;;;3.20;100.00
36600;BME280;35385;55.668;37.508;2023-03-16T00:47:13;98881.00;;;3.23;100.00
36600;BME280;35385;55.668;37.508;2023-03-16T00:48:13;98872.31;;;3.20;100.00
36600;BME280;35385;55.668;37.508;2023-03-16T00:49:14;98874.88;;;3.22;100.00
36600;BME280;35385;55.668;37.508;2023-03-16T00:50:14;98881.59;;;3.13;100.00
36600;BME280;35385;55.668;37.508;2023-03-16T00:51:15;98879.75;;;3.01;100.00
36600;BME280;35385;55.668;37.508;2023-03-16T00:52:16;98877.75;;;3.05;100.00
36600;BME280;35385;55.668;37.508;2023-03-16T00:53:16;98877.34;;;3.11;100.00
36600;BME280;35385;55.668;37.508;2023-03-16T00:54:17;98877.53;;;3.08;100.00
36600;BME280;35385;55.668;37.508;2023-03-16T00:55:17;98877.84;;;3.03;100.00
36600;BME280;35385;55.668;37.508;2023-03-16T00:56:18;98872.47;;;3.05;100.00
36600;BME280;35385;55.668;37.508;2023-03-16T00:57:18;98871.13;;;3.12;100.00
36600;BME280;35385;55.668;37.508;2023-03-16T00:58:19;98880.75;;;3.13;100.00
36600;BME280;35385;55.668;37.508;2023-03-16T00:59:19;98878.97;;;3.13;100.00
36600;BME280;35385;55.668;37.508;2023-03-16T01:00:20;98884.75;;;3.18;100.00
36600;BME280;35385;55.668;37.508;2023-03-16T01:01:22;98879.72;;;3.15;100.00
36600;BME280;35385;55.668;37.508;2023-03-16T01:02:23;98881.97;;;3.07;100.00
36600;BME280;35385;55.668;37.508;2023-03-16T01:03:23;98879.06;;;3.12;100.00
36600;BME280;35385;55.668;37.508;2023-03-16T01:04:24;98875.28;;;3.16;100.00
36600;BME280;35385;55.668;37.508;2023-03-16T01:05:24;98874.63;;;3.12;100.00
36600;BME280;35385;55.668;37.508;2023-03-16T01:06:24;98872.72;;;3.14;100.00
36600;BME280;35385;55.668;37.508;2023-03-16T01:07:25;98881.41;;;3.16;100.00
36600;BME280;35385;55.668;37.508;2023-03-16T01:08:26;98870.75;;;3.04;100.00
36600;BME280;35385;55.668;37.508;2023-03-16T01:09:29;98879.66;;;3.03;100.00
36600;BME280;35385;55.668;37.508;2023-03-16T01:10:30;98880.09;;;3.09;100.00
36600;BME280;35385;55.668;37.508;2023-03-16T01:11:30;98870.84;;;3.16;100.00
36600;BME280;35385;55.668;37.508;2023-03-16T01:12:32;98872.28;;;3.08;100.00
36600;BME280;35385;55.668;37.508;2023-03-16T01:13:33;98871.63;;;3.04;100.00
36600;BME280;35385;55.668;37.508;2023-03-16T01:14:34;98875.94;;;3.05;100.00
36600;BME280;35385;55.668;37.508;2023-03-16T01:15:34;98874.53;;;3.14;100.00
36600;BME280;35385;55.668;37.508;2023-03-16T01:16:35;98881.19;;;3.19;100.00
36600;BME280;35385;55.668;37.508;2023-03-16T01:17:35;98880.91;;;3.24;100.00
36600;BME280;35385;55.668;37.508;2023-03-16T01:18:35;98870.78;;;3.31;100.00
36600;BME280;35385;55.668;37.508;2023-03-16T01:19:36;98881.13;;;3.34;100.00
36600;BME280;35385;55.668;37.508;2023-03-16T01:20:36;98880.84;;;3.38;100.00
36600;BME280;35385;55.668;37.508;2023-03-16T01:21:37;98877.91;;;3.43;100.00
36600;BME280;35385;55.668;37.508;2023-03-16T01:22:37;98881.88;;;3.36;100.00
36600;BME280;35385;55.668;37.508;2023-03-16T01:23:38;98881.19;;;3.19;100.00
36600;BME280;35385;55.668;37.508;2023-03-16T01:24:39;98882.63;;;3.11;100.00
36600;BME280;35385;55.668;37.508;2023-03-16T01:25:39;98885.66;;;3.05;100.00
36600;BME280;35385;55.668;37.508;2023-03-16T01:26:41;98885.38;;;3.09;100.00
36600;BME280;35385;55.668;37.508;2023-03-16T01:27:41;98872.16;;;3.09;100.00
36600;BME280;35385;55.668;37.508;2023-03-16T01:28:42;98883.06;;;3.17;100.00
36600;BME280;35385;55.668;37.508;2023-03-16T01:29:43;98884.56;;;3.22;100.00
36600;BME280;35385;55.668;37.508;2023-03-16T01:30:43;98876.97;;;3.17;100.00
36600;BME280;35385;55.668;37.508;2023-03-16T01:31:44;98882.88;;;3.20;100.00
36600;BME280;35385;55.668;37.508;2023-03-16T01:32:44;98884.38;;;3.25;100.00
36600;BME280;35385;55.668;37.508;2023-03-16T01:33:45;98883.28;;;3.14;100.00
36600;BME280;35385;55.668;37.508;2023-03-16T01:34:45;98884.97;;;3.15;100.00
36600;BME280;35385;55.668;37.508;2023-03-16T01:35:55;98882.88;;;3.20;100.00
36600;BME280;35385;55.668;37.508;2023-03-16T01:36:56;98891.34;;;3.26;100.00
36600;BME280;35385;55.668;37.508;2023-03-16T01:37:56;98890.97;;;3.32;100.00
36600;BME280;35385;55.668;37.508;2023-03-16T01:39:00;98887.88;;;3.25;100.00
36600;BME280;35385;55.668;37.508;2023-03-16T01:40:00;98885.41;;;3.22;100.00
36600;BME280;35385;55.668;37.508;2023-03-16T01:41:01;98881.84;;;3.23;100.00
36600;BME280;35385;55.668;37.508;2023-03-16T01:42:02;98880.69;;;3.27;100.00
36600;BME280;35385;55.668;37.508;2023-03-16T01:43:03;98876.56;;;3.23;100.00
36600;BME280;35385;55.668;37.508;2023-03-16T01:44:04;98878.00;;;3.14;100.00
36600;BME280;35385;55.668;37.508;2023-03-16T01:45:04;98872.13;;;3.24;100.00
36600;BME280;35385;55.668;37.508;2023-03-16T01:47:06;98882.31;;;3.30;100.00
36600;BME280;35385;55.668;37.508;2023-03-16T01:48:06;98880.09;;;3.36;100.00
36600;BME280;35385;55.668;37.508;2023-03-16T01:50:07;98886.50;;;3.32;100.00
36600;BME280;35385;55.668;37.508;2023-03-16T01:51:09;98890.53;;;3.38;100.00
36600;BME280;35385;55.668;37.508;2023-03-16T01:52:12;98885.88;;;3.29;100.00
36600;BME280;35385;55.668;37.508;2023-03-16T01:53:13;98886.25;;;3.23;100.00
36600;BME280;35385;55.668;37.508;2023-03-16T01:55:17;98885.56;;;3.33;100.00
36600;BME280;35385;55.668;37.508;2023-03-16T01:56:20;98884.00;;;3.31;100.00
36600;BME280;35385;55.668;37.508;2023-03-16T01:57:26;98881.44;;;3.29;100.00
36600;BME280;35385;55.668;37.508;2023-03-16T01:58:31;98884.84;;;3.31;100.00
36600;BME280;35385;55.668;37.508;2023-03-16T01:59:36;98886.06;;;3.26;100.00
36600;BME280;35385;55.668;37.508;2023-03-16T02:00:38;98882.59;;;3.25;100.00
36600;BME280;35385;55.668;37.508;2023-03-16T02:01:40;98883.06;;;3.17;100.00
36600;BME280;35385;55.668;37.508;2023-03-16T02:02:41;98877.97;;;3.29;100.00
36600;BME280;35385;55.668;37.508;2023-03-16T02:03:44;98875.72;;;3.23;100.00
36600;BME280;35385;55.668;37.508;2023-03-16T02:04:47;98875.91;;;3.19;100.00
36600;BME280;35385;55.668;37.508;2023-03-16T02:05:57;98878.31;;;3.10;100.00
36600;BME280;35385;55.668;37.508;2023-03-16T02:06:59;98878.19;;;3.11;100.00
36600;BME280;35385;55.668;37.508;2023-03-16T02:07:59;98877.25;;;3.12;100.00
36600;BME280;35385;55.668;37.508;2023-03-16T02:09:01;98879.16;;;3.10;100.00
36600;BME280;35385;55.668;37.508;2023-03-16T02:10:02;98879.72;;;3.15;100.00
36600;BME280;35385;55.668;37.508;2023-03-16T02:11:03;98876.97;;;3.17;100.00
36600;BME280;35385;55.668;37.508;2023-03-16T02:12:04;98884.66;;;3.20;100.00
36600;BME280;35385;55.668;37.508;2023-03-16T02:13:05;98884.75;;;3.18;100.00
36600;BME280;35385;55.668;37.508;2023-03-16T02:14:07;98883.25;;;3.29;100.00
36600;BME280;35385;55.668;37.508;2023-03-16T02:15:08;98890.84;;;3.33;100.00
36600;BME280;35385;55.668;37.508;2023-03-16T02:16:29;98884.63;;;3.34;100.00
36600;BME280;35385;55.668;37.508;2023-03-16T02:17:30;98888.19;;;3.33;100.00
36600;BME280;35385;55.668;37.508;2023-03-16T02:18:31;98884.84;;;3.31;100.00
36600;BME280;35385;55.668;37.508;2023-03-16T02:19:35;98882.50;;;3.27;100.00
36600;BME280;35385;55.668;37.508;2023-03-16T02:20:41;98885.13;;;3.27;100.00
36600;BME280;35385;55.668;37.508;2023-03-16T02:21:54;98881.00;;;3.23;100.00
36600;BME280;35385;55.668;37.508;2023-03-16T02:22:57;98877.41;;;3.24;100.00
36600;BME280;35385;55.668;37.508;2023-03-16T02:23:58;98884.19;;;3.28;100.00
36600;BME280;35385;55.668;37.508;2023-03-16T02:25:01;98877.41;;;3.24;100.00
36600;BME280;35385;55.668;37.508;2023-03-16T02:26:12;98871.56;;;3.18;100.00
36600;BME280;35385;55.668;37.508;2023-03-16T02:27:16;98877.22;;;3.27;100.00
36600;BME280;35385;55.668;37.508;2023-03-16T02:28:22;98869.28;;;3.27;100.00
36600;BME280;35385;55.668;37.508;2023-03-16T02:30:43;98884.97;;;3.42;100.00
36600;BME280;35385;55.668;37.508;2023-03-16T02:31:44;98879.78;;;3.41;100.00
36600;BME280;35385;55.668;37.508;2023-03-16T02:32:45;98883.66;;;3.35;100.00
36600;BME280;35385;55.668;37.508;2023-03-16T02:33:47;98886.81;;;3.28;100.00
36600;BME280;35385;55.668;37.508;2023-03-16T02:34:48;98887.31;;;3.20;100.00
36600;BME280;35385;55.668;37.508;2023-03-16T02:35:49;98880.78;;;3.26;100.00
36600;BME280;35385;55.668;37.508;2023-03-16T02:36:49;98885.78;;;3.30;100.00
36600;BME280;35385;55.668;37.508;2023-03-16T02:37:51;98880.94;;;3.37;100.00
36600;BME280;35385;55.668;37.508;2023-03-16T02:38:51;98877.25;;;3.39;100.00
36600;BME280;35385;55.668;37.508;2023-03-16T02:39:52;98878.50;;;3.34;100.00
36600;BME280;35385;55.668;37.508;2023-03-16T02:40:54;98869.44;;;3.38;100.00
36600;BME280;35385;55.668;37.508;2023-03-16T02:41:57;98869.03;;;3.44;100.00
36600;BME280;35385;55.668;37.508;2023-03-16T02:44:00;98860.91;;;3.47;100.00
36600;BME280;35385;55.668;37.508;2023-03-16T02:45:03;98863.13;;;3.53;100.00
36600;BME280;35385;55.668;37.508;2023-03-16T02:46:04;98862.00;;;3.57;100.00
36600;BME280;35385;55.668;37.508;2023-03-16T02:47:06;98861.16;;;3.57;100.00
36600;BME280;35385;55.668;37.508;2023-03-16T02:48:15;98867.09;;;3.60;100.00
36600;BME280;35385;55.668;37.508;2023-03-16T02:49:25;98864.44;;;3.60;100.00
36600;BME280;35385;55.668;37.508;2023-03-16T02:50:26;98863.59;;;3.60;100.00
36600;BME280;35385;55.668;37.508;2023-03-16T02:51:27;98857.47;;;3.59;100.00
36600;BME280;35385;55.668;37.508;2023-03-16T02:52:28;98866.34;;;3.58;100.00
36600;BME280;35385;55.668;37.508;2023-03-16T02:53:28;98862.75;;;3.59;100.00
36600;BME280;35385;55.668;37.508;2023-03-16T02:54:29;98857.97;;;3.64;100.00
36600;BME280;35385;55.668;37.508;2023-03-16T02:55:29;98862.28;;;3.52;100.00
36600;BME280;35385;55.668;37.508;2023-03-16T02:56:29;98862.66;;;3.61;100.00
36600;BME280;35385;55.668;37.508;2023-03-16T02:57:30;98863.47;;;3.61;100.00
36600;BME280;35385;55.668;37.508;2023-03-16T02:58:30;98862.75;;;3.59;100.00
36600;BME280;35385;55.668;37.508;2023-03-16T02:59:31;98862.94;;;3.56;100.00
36600;BME280;35385;55.668;37.508;2023-03-16T03:00:31;98862.75;;;3.59;100.00
36600;BME280;35385;55.668;37.508;2023-03-16T03:01:32;98871.38;;;3.61;100.00
36600;BME280;35385;55.668;37.508;2023-03-16T03:02:33;98868.22;;;3.56;100.00
36600;BME280;35385;55.668;37.508;2023-03-16T03:03:34;98871.19;;;3.64;100.00
36600;BME280;35385;55.668;37.508;2023-03-16T03:04:34;98865.06;;;3.76;100.00
36600;BME280;35385;55.668;37.508;2023-03-16T03:05:35;98874.41;;;3.82;100.00
36600;BME280;35385;55.668;37.508;2023-03-16T03:06:36;98867.63;;;3.78;100.00
36600;BME280;35385;55.668;37.508;2023-03-16T03:07:36;98872.69;;;3.68;100.00
36600;BME280;35385;55.668;37.508;2023-03-16T03:08:37;98868.22;;;3.56;100.00
36600;BME280;35385;55.668;37.508;2023-03-16T03:09:37;98857.00;;;3.52;100.00
36600;BME280;35385;55.668;37.508;2023-03-16T03:10:37;98857.84;;;3.53;100.00
36600;BME280;35385;55.668;37.508;2023-03-16T03:11:38;98859.34;;;3.57;100.00
36600;BME280;35385;55.668;37.508;2023-03-16T03:12:38;98867.09;;;3.60;100.00
36600;BME280;35385;55.668;37.508;2023-03-16T03:13:39;98865.28;;;3.61;100.00
36600;BME280;35385;55.668;37.508;2023-03-16T03:14:43;98864.84;;;3.67;100.00
36600;BME280;35385;55.668;37.508;2023-03-16T03:15:43;98863.63;;;3.72;100.00
36600;BME280;35385;55.668;37.508;2023-03-16T03:16:44;98857.91;;;3.78;100.00
36600;BME280;35385;55.668;37.508;2023-03-16T03:17:45;98861.84;;;3.85;100.00
36600;BME280;35385;55.668;37.508;2023-03-16T03:18:46;98865.00;;;3.90;100.00
36600;BME280;35385;55.668;37.508;2023-03-16T03:19:46;98862.16;;;3.94;100.00
36600;BME280;35385;55.668;37.508;2023-03-16T03:20:47;98863.84;;;3.95;100.00
36600;BME280;35385;55.668;37.508;2023-03-16T03:21:47;98860.88;;;3.86;100.00
36600;BME280;35385;55.668;37.508;2023-03-16T03:22:48;98861.38;;;3.79;100.00
36600;BME280;35385;55.668;37.508;2023-03-16T03:23:49;98856.09;;;3.79;100.00
36600;BME280;35385;55.668;37.508;2023-03-16T03:24:49;98858.00;;;3.77;100.00
36600;BME280;35385;55.668;37.508;2023-03-16T03:25:50;98852.22;;;3.84;100.00
36600;BME280;35385;55.668;37.508;2023-03-16T03:26:51;98854.41;;;3.90;100.00
36600;BME280;35385;55.668;37.508;2023-03-16T03:27:51;98858.16;;;3.88;100.00
36600;BME280;35385;55.668;37.508;2023-03-16T03:28:53;98853.47;;;3.79;100.00
36600;BME280;35385;55.668;37.508;2023-03-16T03:29:53;98843.34;;;3.73;100.00
36600;BME280;35385;55.668;37.508;2023-03-16T03:30:54;98851.88;;;3.76;100.00
36600;BME280;35385;55.668;37.508;2023-03-16T03:31:55;98846.19;;;3.82;100.00
36600;BME280;35385;55.668;37.508;2023-03-16T03:32:55;98853.72;;;3.88;100.00
36600;BME280;35385;55.668;37.508;2023-03-16T03:33:56;98840.69;;;3.85;100.00
36600;BME280;35385;55.668;37.508;2023-03-16T03:34:56;98842.28;;;3.88;100.00
36600;BME280;35385;55.668;37.508;2023-03-16T03:35:57;98844.00;;;3.89;100.00
36600;BME280;35385;55.668;37.508;2023-03-16T03:36:57;98844.50;;;3.81;100.00
36600;BME280;35385;55.668;37.508;2023-03-16T03:37:58;98839.22;;;3.81;100.00
36600;BME280;35385;55.668;37.508;2023-03-16T03:38:58;98841.84;;;3.81;100.00
36600;BME280;35385;55.668;37.508;2023-03-16T03:39:59;98841.84;;;3.81;100.00
36600;BME280;35385;55.668;37.508;2023-03-16T03:40:59;98848.63;;;3.85;100.00
36600;BME280;35385;55.668;37.508;2023-03-16T03:42:00;98846.50;;;3.90;100.00
36600;BME280;35385;55.668;37.508;2023-03-16T03:43:02;98841.56;;;3.99;100.00
36600;BME280;35385;55.668;37.508;2023-03-16T03:44:03;98849.78;;;4.07;100.00
36600;BME280;35385;55.668;37.508;2023-03-16T03:45:04;98848.63;;;4.11;100.00
36600;BME280;35385;55.668;37.508;2023-03-16T03:46:04;98854.47;;;4.16;100.00
36600;BME280;35385;55.668;37.508;2023-03-16T03:47:05;98846.28;;;4.19;100.00
36600;BME280;35385;55.668;37.508;2023-03-16T03:48:05;98850.53;;;4.21;100.00
36600;BME280;35385;55.668;37.508;2023-03-16T03:49:05;98854.88;;;4.22;100.00
36600;BME280;35385;55.668;37.508;2023-03-16T03:50:07;98855.59;;;4.24;100.00
36600;BME280;35385;55.668;37.508;2023-03-16T03:51:07;98856.66;;;4.22;100.00
36600;BME280;35385;55.668;37.508;2023-03-16T03:52:08;98858.78;;;4.17;100.00
36600;BME280;35385;55.668;37.508;2023-03-16T03:53:08;98855.41;;;4.15;100.00
36600;BME280;35385;55.668;37.508;2023-03-16T03:54:09;98856.25;;;4.15;100.00
36600;BME280;35385;55.668;37.508;2023-03-16T03:55:10;98868.41;;;4.18;100.00
36600;BME280;35385;55.668;37.508;2023-03-16T03:56:11;98863.75;;;4.21;100.00
36600;BME280;35385;55.668;37.508;2023-03-16T03:57:11;98859.00;;;4.14;100.00
36600;BME280;35385;55.668;37.508;2023-03-16T03:58:12;98861.31;;;4.06;100.00
36600;BME280;35385;55.668;37.508;2023-03-16T03:59:12;98861.31;;;4.06;100.00
36600;BME280;35385;55.668;37.508;2023-03-16T04:00:12;98862.25;;;4.05;100.00
36600;BME280;35385;55.668;37.508;2023-03-16T04:01:13;98854.88;;;3.97;100.00
36600;BME280;35385;55.668;37.508;2023-03-16T04:02:14;98859.94;;;3.87;100.00
36600;BME280;35385;55.668;37.508;2023-03-16T04:03:14;98859.19;;;3.85;100.00
36600;BME280;35385;55.668;37.508;2023-03-16T04:04:16;98862.69;;;3.86;100.00
36600;BME280;35385;55.668;37.508;2023-03-16T04:05:16;98867.31;;;3.82;100.00
36600;BME280;35385;55.668;37.508;2023-03-16T04:06:17;98858.44;;;3.83;100.00
36600;BME280;35385;55.668;37.508;2023-03-16T04:07:17;98859.59;;;3.79;100.00
36600;BME280;35385;55.668;37.508;2023-03-16T04:08:18;98854.50;;;3.76;100.00
36600;BME280;35385;55.668;37.508;2023-03-16T04:09:18;98852.63;;;3.78;100.00
36600;BME280;35385;55.668;37.508;2023-03-16T04:10:18;98851.66;;;3.79;100.00
36600;BME280;35385;55.668;37.508;2023-03-16T04:11:20;98846.94;;;3.84;100.00
36600;BME280;35385;55.668;37.508;2023-03-16T04:12:20;98857.50;;;3.84;100.00
36600;BME280;35385;55.668;37.508;2023-03-16T04:13:20;98864.47;;;3.85;100.00
36600;BME280;35385;55.668;37.508;2023-03-16T04:14:21;98858.03;;;3.89;100.00
36600;BME280;35385;55.668;37.508;2023-03-16T04:15:21;98859.84;;;3.89;100.00
36600;BME280;35385;55.668;37.508;2023-03-16T04:16:22;98855.81;;;3.83;100.00
36600;BME280;35385;55.668;37.508;2023-03-16T04:17:25;98851.28;;;3.85;100.00
36600;BME280;35385;55.668;37.508;2023-03-16T04:18:26;98850.63;;;3.82;100.00
36600;BME280;35385;55.668;37.508;2023-03-16T04:19:26;98852.31;;;3.70;100.00
36600;BME280;35385;55.668;37.508;2023-03-16T04:20:27;98845.53;;;3.66;100.00
36600;BME280;35385;55.668;37.508;2023-03-16T04:21:28;98852.38;;;3.56;100.00
36600;BME280;35385;55.668;37.508;2023-03-16T04:22:29;98851.34;;;3.59;100.00
36600;BME280;35385;55.668;37.508;2023-03-16T04:23:30;98847.50;;;3.63;100.00
36600;BME280;35385;55.668;37.508;2023-03-16T04:24:32;98844.66;;;3.53;100.00
36600;BME280;35385;55.668;37.508;2023-03-16T04:25:33;98849.75;;;3.56;100.00
36600;BME280;35385;55.668;37.508;2023-03-16T04:26:37;98848.38;;;3.63;100.00
36600;BME280;35385;55.668;37.508;2023-03-16T04:27:37;98846.47;;;3.65;100.00
36600;BME280;35385;55.668;37.508;2023-03-16T04:28:38;98847.22;;;3.67;100.00
36600;BME280;35385;55.668;37.508;2023-03-16T04:29:39;98848.09;;;3.80;100.00
36600;BME280;35385;55.668;37.508;2023-03-16T04:30:39;98846.19;;;3.82;100.00
36600;BME280;35385;55.668;37.508;2023-03-16T04:31:42;98847.97;;;3.82;100.00
36600;BME280;35385;55.668;37.508;2023-03-16T04:32:42;98856.94;;;3.67;100.00
36600;BME280;35385;55.668;37.508;2023-03-16T04:33:43;98854.47;;;3.51;100.00
36600;BME280;35385;55.668;37.508;2023-03-16T04:34:48;98850.88;;;3.52;100.00
36600;BME280;35385;55.668;37.508;2023-03-16T04:35:49;98862.38;;;3.51;100.00
36600;BME280;35385;55.668;37.508;2023-03-16T04:36:51;98861.06;;;3.58;100.00
36600;BME280;35385;55.668;37.508;2023-03-16T04:38:02;98853.44;;;3.66;100.00
36600;BME280;35385;55.668;37.508;2023-03-16T04:39:03;98862.03;;;3.70;100.00
36600;BME280;35385;55.668;37.508;2023-03-16T04:40:07;98852.72;;;3.77;100.00
36600;BME280;35385;55.668;37.508;2023-03-16T04:41:14;98854.22;;;3.81;100.00
36600;BME280;35385;55.668;37.508;2023-03-16T04:42:15;98852.41;;;3.81;100.00
36600;BME280;35385;55.668;37.508;2023-03-16T04:43:18;98857.59;;;3.83;100.00
36600;BME280;35385;55.668;37.508;2023-03-16T04:44:18;98862.47;;;3.89;100.00
36600;BME280;35385;55.668;37.508;2023-03-16T04:45:21;98872.63;;;3.95;100.00
36600;BME280;35385;55.668;37.508;2023-03-16T04:46:22;98874.31;;;3.96;100.00
36600;BME280;35385;55.668;37.508;2023-03-16T04:47:23;98876.75;;;3.99;100.00
36600;BME280;35385;55.668;37.508;2023-03-16T04:48:24;98882.88;;;4.00;100.00
36600;BME280;35385;55.668;37.508;2023-03-16T04:49:24;98882.69;;;4.03;100.00
36600;BME280;35385;55.668;37.508;2023-03-16T04:50:28;98882.69;;;4.03;100.00
36600;BME280;35385;55.668;37.508;2023-03-16T04:51:29;98877.16;;;4.06;100.00
36600;BME280;35385;55.668;37.508;2023-03-16T04:52:32;98879.81;;;4.06;100.00
36600;BME280;35385;55.668;37.508;2023-03-16T04:53:33;98881.41;;;4.08;100.00
36600;BME280;35385;55.668;37.508;2023-03-16T04:54:36;98877.16;;;4.06;100.00
36600;BME280;35385;55.668;37.508;2023-03-16T04:55:48;98877.16;;;3.93;100.00
36600;BME280;35385;55.668;37.508;2023-03-16T04:56:51;98881.59;;;3.92;100.00
36600;BME280;35385;55.668;37.508;2023-03-16T04:57:59;98882.22;;;3.83;100.00
36600;BME280;35385;55.668;37.508;2023-03-16T04:59:00;98889.09;;;3.73;100.00
36600;BME280;35385;55.668;37.508;2023-03-16T05:00:03;98889.56;;;3.66;100.00
36600;BME280;35385;55.668;37.508;2023-03-16T05:01:32;98897.59;;;3.64;100.00
36600;BME280;35385;55.668;37.508;2023-03-16T05:02:33;98890.41;;;3.53;100.00
36600;BME280;35385;55.668;37.508;2023-03-16T05:03:33;98892.94;;;3.55;100.00
36600;BME280;35385;55.668;37.508;2023-03-16T05:04:34;98889.78;;;3.63;100.00
36600;BME280;35385;55.668;37.508;2023-03-16T05:06:55;98890.44;;;3.79;100.00
36600;BME280;35385;55.668;37.508;2023-03-16T05:07:58;98897.72;;;3.75;100.00
36600;BME280;35385;55.668;37.508;2023-03-16T05:09:00;98892.22;;;3.66;100.00
36600;BME280;35385;55.668;37.508;2023-03-16T05:10:01;98899.28;;;3.65;100.00
36600;BME280;35385;55.668;37.508;2023-03-16T05:11:02;98899.63;;;3.61;100.00
36600;BME280;35385;55.668;37.508;2023-03-16T05:12:12;98906.28;;;3.66;100.00
36600;BME280;35385;55.668;37.508;2023-03-16T05:13:12;98905.41;;;3.66;100.00
36600;BME280;35385;55.668;37.508;2023-03-16T05:14:13;98902.06;;;3.76;100.00
36600;BME280;35385;55.668;37.508;2023-03-16T05:15:13;98896.47;;;3.81;100.00
36600;BME280;35385;55.668;37.508;2023-03-16T05:16:14;98902.91;;;3.77;100.00
36600;BME280;35385;55.668;37.508;2023-03-16T05:17:14;98902.78;;;3.66;100.00
36600;BME280;35385;55.668;37.508;2023-03-16T05:18:15;98902.97;;;3.63;100.00
36600;BME280;35385;55.668;37.508;2023-03-16T05:19:15;98901.16;;;3.50;100.00
36600;BME280;35385;55.668;37.508;2023-03-16T05:20:16;98901.56;;;3.44;100.00
36600;BME280;35385;55.668;37.508;2023-03-16T05:21:16;98901.16;;;3.50;100.00
36600;BME280;35385;55.668;37.508;2023-03-16T05:22:17;98897.28;;;3.56;100.00
36600;BME280;35385;55.668;37.508;2023-03-16T05:23:19;98898.63;;;3.62;100.00
36600;BME280;35385;55.668;37.508;2023-03-16T05:24:19;98896.97;;;3.61;100.00
36600;BME280;35385;55.668;37.508;2023-03-16T05:25:20;98901.00;;;3.66;100.00
36600;BME280;35385;55.668;37.508;2023-03-16T05:26:20;98895.31;;;3.72;100.00
36600;BME280;35385;55.668;37.508;2023-03-16T05:27:21;98896.78;;;3.76;100.00
36600;BME280;35385;55.668;37.508;2023-03-16T05:28:21;98893.63;;;3.84;100.00